sensor_id;sensor_type;location;lat;lon;timestamp;temperature;humidity
9965;DHT22;5023;53.554;9.964;2022-12-08T00:08:32;2.50;99.90
9965;DHT22;5023;53.554;9.964;2022-12-08T00:14:12;2.50;99.90
9965;DHT22;5023;53.554;9.964;2022-12-08T00:26:25;2.50;99.90
9965;DHT22;5023;53.554;9.964;2022-12-08T00:32:05;2.70;99.90
9965;DHT22;5023;53.554;9.964;2022-12-08T00:37:43;2.70;99.90
9965;DHT22;5023;53.554;9.964;2022-12-08T00:48:32;2.80;99.90
9965;DHT22;5023;53.554;9.964;2022-12-08T00:59:35;2.80;99.90
9965;DHT22;5023;53.554;9.964;2022-12-08T01:05:11;2.80;99.90
9965;DHT22;5023;53.554;9.964;2022-12-08T01:23:09;2.90;99.90
9965;DHT22;5023;53.554;9.964;2022-12-08T01:34:32;3.00;99.90
9965;DHT22;5023;53.554;9.964;2022-12-08T01:56:34;3.10;99.90
9965;DHT22;5023;53.554;9.964;2022-12-08T02:02:38;3.10;99.90
9965;DHT22;5023;53.554;9.964;2022-12-08T02:14:06;2.60;99.90
9965;DHT22;5023;53.554;9.964;2022-12-08T02:20:27;2.40;99.90
9965;DHT22;5023;53.554;9.964;2022-12-08T02:33:14;2.30;99.90
9965;DHT22;5023;53.554;9.964;2022-12-08T02:54:28;2.60;99.90
9965;DHT22;5023;53.554;9.964;2022-12-08T03:00:08;2.60;99.90
9965;DHT22;5023;53.554;9.964;2022-12-08T03:06:11;2.80;99.90
9965;DHT22;5023;53.554;9.964;2022-12-08T03:12:05;2.80;99.90
9965;DHT22;5023;53.554;9.964;2022-12-08T03:18:13;2.80;99.90
9965;DHT22;5023;53.554;9.964;2022-12-08T03:23:53;2.80;99.90
9965;DHT22;5023;53.554;9.964;2022-12-08T03:30:03;2.80;99.90
9965;DHT22;5023;53.554;9.964;2022-12-08T03:35:42;2.80;99.90
9965;DHT22;5023;53.554;9.964;2022-12-08T03:57:33;2.80;99.90
9965;DHT22;5023;53.554;9.964;2022-12-08T04:02:55;2.80;99.90
9965;DHT22;5023;53.554;9.964;2022-12-08T04:07:59;2.90;99.90
9965;DHT22;5023;53.554;9.964;2022-12-08T04:13:41;2.80;99.90
9965;DHT22;5023;53.554;9.964;2022-12-08T04:19:17;2.70;99.90
9965;DHT22;5023;53.554;9.964;2022-12-08T04:24:55;2.80;99.90
9965;DHT22;5023;53.554;9.964;2022-12-08T04:30:30;2.70;99.90
9965;DHT22;5023;53.554;9.964;2022-12-08T04:36:09;2.70;99.90
9965;DHT22;5023;53.554;9.964;2022-12-08T04:47:18;2.70;99.90
9965;DHT22;5023;53.554;9.964;2022-12-08T04:52:57;2.80;99.90
9965;DHT22;5023;53.554;9.964;2022-12-08T04:58:01;2.70;99.90
9965;DHT22;5023;53.554;9.964;2022-12-08T05:03:26;2.70;99.90
9965;DHT22;5023;53.554;9.964;2022-12-08T05:09:02;2.70;99.90
9965;DHT22;5023;53.554;9.964;2022-12-08T05:14:37;2.70;99.90
9965;DHT22;5023;53.554;9.964;2022-12-08T05:19:44;2.70;99.90
9965;DHT22;5023;53.554;9.964;2022-12-08T05:25:22;2.70;99.90
9965;DHT22;5023;53.554;9.964;2022-12-08T05:36:49;2.60;99.90
9965;DHT22;5023;53.554;9.964;2022-12-08T05:42:23;2.80;99.90
9965;DHT22;5023;53.554;9.964;2022-12-08T05:47:59;2.60;99.90
9965;DHT22;5023;53.554;9.964;2022-12-08T05:53:35;2.60;99.90
9965;DHT22;5023;53.554;9.964;2022-12-08T05:59:10;2.70;99.90
9965;DHT22;5023;53.554;9.964;2022-12-08T06:04:45;2.60;99.90
9965;DHT22;5023;53.554;9.964;2022-12-08T06:09:50;2.50;99.90
9965;DHT22;5023;53.554;9.964;2022-12-08T06:15:25;2.50;99.90
9965;DHT22;5023;53.554;9.964;2022-12-08T06:21:16;2.60;99.90
9965;DHT22;5023;53.554;9.964;2022-12-08T06:26:59;2.60;99.90
9965;DHT22;5023;53.554;9.964;2022-12-08T06:32:35;2.60;99.90
9965;DHT22;5023;53.554;9.964;2022-12-08T06:38:12;2.60;99.90
9965;DHT22;5023;53.554;9.964;2022-12-08T06:43:33;2.50;99.90
9965;DHT22;5023;53.554;9.964;2022-12-08T06:49:17;2.40;99.90
9965;DHT22;5023;53.554;9.964;2022-12-08T06:55:16;2.30;99.90
9965;DHT22;5023;53.554;9.964;2022-12-08T07:13:08;2.30;99.90
9965;DHT22;5023;53.554;9.964;2022-12-08T07:18:43;2.30;99.90
9965;DHT22;5023;53.554;9.964;2022-12-08T07:24:28;2.30;99.90
9965;DHT22;5023;53.554;9.964;2022-12-08T07:30:03;2.40;99.90
9965;DHT22;5023;53.554;9.964;2022-12-08T07:41:42;2.20;99.90
9965;DHT22;5023;53.554;9.964;2022-12-08T07:47:21;2.40;99.90
9965;DHT22;5023;53.554;9.964;2022-12-08T07:53:00;2.40;99.90
9965;DHT22;5023;53.554;9.964;2022-12-08T08:10:50;2.50;99.90
9965;DHT22;5023;53.554;9.964;2022-12-08T08:16:39;2.50;99.90
9965;DHT22;5023;53.554;9.964;2022-12-08T08:22:35;2.50;99.90
9965;DHT22;5023;53.554;9.964;2022-12-08T08:28:12;2.60;99.90
9965;DHT22;5023;53.554;9.964;2022-12-08T08:33:48;2.60;99.90
9965;DHT22;5023;53.554;9.964;2022-12-08T08:39:25;2.60;99.90
9965;DHT22;5023;53.554;9.964;2022-12-08T08:45:00;2.60;99.90
9965;DHT22;5023;53.554;9.964;2022-12-08T08:50:35;2.60;99.90
9965;DHT22;5023;53.554;9.964;2022-12-08T09:02:43;2.60;99.90
9965;DHT22;5023;53.554;9.964;2022-12-08T09:14:32;3.30;99.90
9965;DHT22;5023;53.554;9.964;2022-12-08T09:20:32;3.30;99.90
9965;DHT22;5023;53.554;9.964;2022-12-08T09:26:34;3.30;99.90
9965;DHT22;5023;53.554;9.964;2022-12-08T09:38:21;2.40;99.90
9965;DHT22;5023;53.554;9.964;2022-12-08T09:43:33;2.50;99.90
9965;DHT22;5023;53.554;9.964;2022-12-08T09:49:15;2.90;99.90
9965;DHT22;5023;53.554;9.964;2022-12-08T09:54:59;3.40;99.90
9965;DHT22;5023;53.554;9.964;2022-12-08T10:01:16;3.50;99.90
9965;DHT22;5023;53.554;9.964;2022-12-08T10:07:20;3.30;99.90
9965;DHT22;5023;53.554;9.964;2022-12-08T10:19:10;3.30;99.90
9965;DHT22;5023;53.554;9.964;2022-12-08T10:25:13;3.20;99.90
9965;DHT22;5023;53.554;9.964;2022-12-08T10:30:50;3.30;99.90
9965;DHT22;5023;53.554;9.964;2022-12-08T10:36:48;3.20;99.90
9965;DHT22;5023;53.554;9.964;2022-12-08T10:42:34;3.20;99.90
9965;DHT22;5023;53.554;9.964;2022-12-08T10:53:47;3.20;99.90
9965;DHT22;5023;53.554;9.964;2022-12-08T10:59:22;3.30;99.90
9965;DHT22;5023;53.554;9.964;2022-12-08T11:04:35;3.30;99.90
9965;DHT22;5023;53.554;9.964;2022-12-08T11:10:31;3.30;99.90
9965;DHT22;5023;53.554;9.964;2022-12-08T11:16:07;3.30;99.90
9965;DHT22;5023;53.554;9.964;2022-12-08T11:21:47;3.40;99.90
9965;DHT22;5023;53.554;9.964;2022-12-08T11:27:39;3.40;99.90
9965;DHT22;5023;53.554;9.964;2022-12-08T11:33:20;3.40;99.90
9965;DHT22;5023;53.554;9.964;2022-12-08T11:49:40;3.30;99.90
9965;DHT22;5023;53.554;9.964;2022-12-08T11:55:32;3.60;99.90
9965;DHT22;5023;53.554;9.964;2022-12-08T12:07:39;3.40;99.90
9965;DHT22;5023;53.554;9.964;2022-12-08T12:12:56;3.60;99.90
9965;DHT22;5023;53.554;9.964;2022-12-08T12:18:04;3.60;99.90
9965;DHT22;5023;53.554;9.964;2022-12-08T12:29:53;3.50;99.90
9965;DHT22;5023;53.554;9.964;2022-12-08T12:42:00;3.60;99.90
9965;DHT22;5023;53.554;9.964;2022-12-08T12:48:21;3.60;99.90
9965;DHT22;5023;53.554;9.964;2022-12-08T13:06:25;3.60;99.90
9965;DHT22;5023;53.554;9.964;2022-12-08T13:12:31;3.70;99.90
9965;DHT22;5023;53.554;9.964;2022-12-08T13:18:18;4.00;99.90
9965;DHT22;5023;53.554;9.964;2022-12-08T13:24:37;3.90;99.90
9965;DHT22;5023;53.554;9.964;2022-12-08T13:30:40;4.10;99.90
9965;DHT22;5023;53.554;9.964;2022-12-08T13:36:20;4.10;99.90
9965;DHT22;5023;53.554;9.964;2022-12-08T13:52:59;4.00;99.90
9965;DHT22;5023;53.554;9.964;2022-12-08T13:59:26;4.10;99.90
9965;DHT22;5023;53.554;9.964;2022-12-08T14:04:32;4.20;99.90
9965;DHT22;5023;53.554;9.964;2022-12-08T14:16:28;4.00;99.90
9965;DHT22;5023;53.554;9.964;2022-12-08T14:22:16;4.00;99.90
9965;DHT22;5023;53.554;9.964;2022-12-08T14:28:24;4.30;99.90
9965;DHT22;5023;53.554;9.964;2022-12-08T14:39:45;4.40;99.90
9965;DHT22;5023;53.554;9.964;2022-12-08T14:45:10;4.20;99.90
9965;DHT22;5023;53.554;9.964;2022-12-08T14:56:56;4.50;99.90
9965;DHT22;5023;53.554;9.964;2022-12-08T15:02:31;4.30;99.90
9965;DHT22;5023;53.554;9.964;2022-12-08T15:08:18;4.30;99.90
9965;DHT22;5023;53.554;9.964;2022-12-08T15:20:38;4.40;99.90
9965;DHT22;5023;53.554;9.964;2022-12-08T15:26:33;4.30;99.90
9965;DHT22;5023;53.554;9.964;2022-12-08T15:32:10;4.20;99.90
9965;DHT22;5023;53.554;9.964;2022-12-08T15:37:50;4.20;99.90
9965;DHT22;5023;53.554;9.964;2022-12-08T15:43:32;4.30;99.90
9965;DHT22;5023;53.554;9.964;2022-12-08T15:55:12;4.40;99.90
9965;DHT22;5023;53.554;9.964;2022-12-08T16:01:12;4.40;99.90
9965;DHT22;5023;53.554;9.964;2022-12-08T16:06:38;4.40;99.90
9965;DHT22;5023;53.554;9.964;2022-12-08T16:18:04;4.10;99.90
9965;DHT22;5023;53.554;9.964;2022-12-08T16:23:11;3.80;99.90
9965;DHT22;5023;53.554;9.964;2022-12-08T16:28:47;3.70;99.90
9965;DHT22;5023;53.554;9.964;2022-12-08T16:34:44;3.70;99.90
9965;DHT22;5023;53.554;9.964;2022-12-08T16:40:28;3.50;99.90
9965;DHT22;5023;53.554;9.964;2022-12-08T16:46:04;3.30;99.90
9965;DHT22;5023;53.554;9.964;2022-12-08T16:51:46;3.20;99.90
9965;DHT22;5023;53.554;9.964;2022-12-08T16:57:12;3.20;99.90
9965;DHT22;5023;53.554;9.964;2022-12-08T17:03:07;3.00;99.90
9965;DHT22;5023;53.554;9.964;2022-12-08T17:14:38;2.90;99.90
9965;DHT22;5023;53.554;9.964;2022-12-08T17:20:15;2.90;99.90
9965;DHT22;5023;53.554;9.964;2022-12-08T17:25:58;2.80;99.90
9965;DHT22;5023;53.554;9.964;2022-12-08T17:31:20;2.70;99.90
9965;DHT22;5023;53.554;9.964;2022-12-08T17:37:16;2.70;99.90
9965;DHT22;5023;53.554;9.964;2022-12-08T17:42:51;2.70;99.90
9965;DHT22;5023;53.554;9.964;2022-12-08T17:48:56;2.70;99.90
9965;DHT22;5023;53.554;9.964;2022-12-08T17:54:41;2.70;99.90
9965;DHT22;5023;53.554;9.964;2022-12-08T18:00:20;2.80;99.90
9965;DHT22;5023;53.554;9.964;2022-12-08T18:06:05;2.80;99.90
9965;DHT22;5023;53.554;9.964;2022-12-08T18:12:03;2.80;99.90
9965;DHT22;5023;53.554;9.964;2022-12-08T18:17:05;2.70;99.90
9965;DHT22;5023;53.554;9.964;2022-12-08T18:27:58;2.80;99.90
9965;DHT22;5023;53.554;9.964;2022-12-08T18:33:02;3.00;99.90
9965;DHT22;5023;53.554;9.964;2022-12-08T18:38:45;2.90;99.90
9965;DHT22;5023;53.554;9.964;2022-12-08T18:45:07;2.90;99.90
9965;DHT22;5023;53.554;9.964;2022-12-08T18:50:33;2.80;99.90
9965;DHT22;5023;53.554;9.964;2022-12-08T18:56:19;2.70;99.90
9965;DHT22;5023;53.554;9.964;2022-12-08T19:01:23;2.80;99.90
9965;DHT22;5023;53.554;9.964;2022-12-08T19:06:26;2.80;99.90
9965;DHT22;5023;53.554;9.964;2022-12-08T19:11:51;2.70;99.90
9965;DHT22;5023;53.554;9.964;2022-12-08T19:16:53;2.70;99.90
9965;DHT22;5023;53.554;9.964;2022-12-08T19:21:56;2.60;99.90
9965;DHT22;5023;53.554;9.964;2022-12-08T19:27:34;2.60;99.90
9965;DHT22;5023;53.554;9.964;2022-12-08T19:33:34;2.50;99.90
9965;DHT22;5023;53.554;9.964;2022-12-08T19:39:14;2.40;99.90
9965;DHT22;5023;53.554;9.964;2022-12-08T19:51:16;2.30;99.90
9965;DHT22;5023;53.554;9.964;2022-12-08T19:56:21;2.20;99.90
9965;DHT22;5023;53.554;9.964;2022-12-08T20:01:58;2.20;99.90
9965;DHT22;5023;53.554;9.964;2022-12-08T20:07:39;2.20;99.90
9965;DHT22;5023;53.554;9.964;2022-12-08T20:12:48;2.20;99.90
9965;DHT22;5023;53.554;9.964;2022-12-08T20:18:13;2.30;99.90
9965;DHT22;5023;53.554;9.964;2022-12-08T20:24:16;2.30;99.90
9965;DHT22;5023;53.554;9.964;2022-12-08T20:29:19;2.20;99.90
9965;DHT22;5023;53.554;9.964;2022-12-08T20:40:25;1.90;99.90
9965;DHT22;5023;53.554;9.964;2022-12-08T20:46:08;1.60;99.90
9965;DHT22;5023;53.554;9.964;2022-12-08T21:03:58;1.30;99.90
9965;DHT22;5023;53.554;9.964;2022-12-08T21:15:09;0.80;99.90
9965;DHT22;5023;53.554;9.964;2022-12-08T21:20:45;0.80;99.90
9965;DHT22;5023;53.554;9.964;2022-12-08T21:26:29;0.80;99.90
9965;DHT22;5023;53.554;9.964;2022-12-08T21:32:11;0.80;99.90
9965;DHT22;5023;53.554;9.964;2022-12-08T21:37:35;0.80;99.90
9965;DHT22;5023;53.554;9.964;2022-12-08T21:49:28;0.80;99.90
9965;DHT22;5023;53.554;9.964;2022-12-08T21:55:10;0.70;99.90
9965;DHT22;5023;53.554;9.964;2022-12-08T22:00:48;0.70;99.90
9965;DHT22;5023;53.554;9.964;2022-12-08T22:06:30;0.70;99.90
9965;DHT22;5023;53.554;9.964;2022-12-08T22:12:17;0.80;99.90
9965;DHT22;5023;53.554;9.964;2022-12-08T22:17:56;0.80;99.90
9965;DHT22;5023;53.554;9.964;2022-12-08T22:23:31;0.70;99.90
9965;DHT22;5023;53.554;9.964;2022-12-08T22:28:37;0.70;99.90
9965;DHT22;5023;53.554;9.964;2022-12-08T22:33:46;0.70;99.90
9965;DHT22;5023;53.554;9.964;2022-12-08T22:39:25;0.80;99.90
9965;DHT22;5023;53.554;9.964;2022-12-08T22:45:08;0.80;99.90
9965;DHT22;5023;53.554;9.964;2022-12-08T23:02:17;0.90;99.90
9965;DHT22;5023;53.554;9.964;2022-12-08T23:32:12;0.80;99.90
9965;DHT22;5023;53.554;9.964;2022-12-08T23:37:40;0.90;99.90
9965;DHT22;5023;53.554;9.964;2022-12-08T23:43:22;0.90;99.90
9965;DHT22;5023;53.554;9.964;2022-12-08T23:48:57;0.90;99.90
9965;DHT22;5023;53.554;9.964;2022-12-08T23:54:33;0.90;99.90
